sensor_id;sensor_type;location;lat;lon;timestamp;P1;durP1;ratioP1;P2;durP2;ratioP2
29984;SDS011;17387;42.690;23.328;2024-02-21T00:02:02;11.32;;;7.45;;
29984;SDS011;17387;42.690;23.328;2024-02-21T00:04:27;11.48;;;7.53;;
29984;SDS011;17387;42.690;23.328;2024-02-21T00:06:53;11.05;;;6.82;;
29984;SDS011;17387;42.690;23.328;2024-02-21T00:09:18;10.50;;;7.13;;
29984;SDS011;17387;42.690;23.328;2024-02-21T00:11:44;10.07;;;7.20;;
29984;SDS011;17387;42.690;23.328;2024-02-21T00:14:09;11.02;;;7.82;;
29984;SDS011;17387;42.690;23.328;2024-02-21T00:16:35;10.87;;;7.17;;
29984;SDS011;17387;42.690;23.328;2024-02-21T00:19:00;11.05;;;7.65;;
29984;SDS011;17387;42.690;23.328;2024-02-21T00:21:25;12.57;;;7.40;;
29984;SDS011;17387;42.690;23.328;2024-02-21T00:23:50;10.63;;;7.10;;
29984;SDS011;17387;42.690;23.328;2024-02-21T00:26:15;10.97;;;7.50;;
29984;SDS011;17387;42.690;23.328;2024-02-21T00:28:41;10.95;;;7.45;;
29984;SDS011;17387;42.690;23.328;2024-02-21T00:31:06;12.73;;;7.70;;
29984;SDS011;17387;42.690;23.328;2024-02-21T00:33:31;11.52;;;7.97;;
29984;SDS011;17387;42.690;23.328;2024-02-21T00:35:57;11.40;;;7.80;;
29984;SDS011;17387;42.690;23.328;2024-02-21T00:38:22;11.77;;;7.82;;
29984;SDS011;17387;42.690;23.328;2024-02-21T00:40:47;10.18;;;6.88;;
29984;SDS011;17387;42.690;23.328;2024-02-21T00:43:13;13.30;;;6.78;;
29984;SDS011;17387;42.690;23.328;2024-02-21T00:45:38;11.50;;;7.78;;
29984;SDS011;17387;42.690;23.328;2024-02-21T00:48:03;9.25;;;6.88;;
29984;SDS011;17387;42.690;23.328;2024-02-21T00:50:29;11.13;;;7.10;;
29984;SDS011;17387;42.690;23.328;2024-02-21T00:52:54;11.05;;;7.47;;
29984;SDS011;17387;42.690;23.328;2024-02-21T00:55:19;10.38;;;6.88;;
29984;SDS011;17387;42.690;23.328;2024-02-21T00:57:45;10.57;;;6.65;;
29984;SDS011;17387;42.690;23.328;2024-02-21T01:00:10;10.27;;;7.00;;
29984;SDS011;17387;42.690;23.328;2024-02-21T01:02:35;9.65;;;6.70;;
29984;SDS011;17387;42.690;23.328;2024-02-21T01:05:01;10.82;;;6.93;;
29984;SDS011;17387;42.690;23.328;2024-02-21T01:07:26;9.10;;;6.63;;
29984;SDS011;17387;42.690;23.328;2024-02-21T01:09:52;8.65;;;6.38;;
29984;SDS011;17387;42.690;23.328;2024-02-21T01:12:17;9.63;;;6.70;;
29984;SDS011;17387;42.690;23.328;2024-02-21T01:14:43;9.80;;;6.63;;
29984;SDS011;17387;42.690;23.328;2024-02-21T01:17:08;10.55;;;7.30;;
29984;SDS011;17387;42.690;23.328;2024-02-21T01:19:33;11.25;;;7.45;;
29984;SDS011;17387;42.690;23.328;2024-02-21T01:21:58;9.55;;;6.60;;
29984;SDS011;17387;42.690;23.328;2024-02-21T01:24:24;10.85;;;7.30;;
29984;SDS011;17387;42.690;23.328;2024-02-21T01:26:49;9.93;;;7.03;;
29984;SDS011;17387;42.690;23.328;2024-02-21T01:29:14;9.70;;;7.03;;
29984;SDS011;17387;42.690;23.328;2024-02-21T01:31:39;11.32;;;7.57;;
29984;SDS011;17387;42.690;23.328;2024-02-21T01:34:04;11.43;;;7.93;;
29984;SDS011;17387;42.690;23.328;2024-02-21T01:36:30;10.25;;;7.00;;
29984;SDS011;17387;42.690;23.328;2024-02-21T01:38:55;10.18;;;7.15;;
29984;SDS011;17387;42.690;23.328;2024-02-21T01:41:21;11.82;;;8.05;;
29984;SDS011;17387;42.690;23.328;2024-02-21T01:43:46;11.90;;;7.90;;
29984;SDS011;17387;42.690;23.328;2024-02-21T01:46:11;11.50;;;7.40;;
29984;SDS011;17387;42.690;23.328;2024-02-21T01:48:36;11.27;;;7.68;;
29984;SDS011;17387;42.690;23.328;2024-02-21T01:51:02;11.88;;;7.88;;
29984;SDS011;17387;42.690;23.328;2024-02-21T01:53:36;10.82;;;7.07;;
29984;SDS011;17387;42.690;23.328;2024-02-21T01:56:02;11.27;;;7.55;;
29984;SDS011;17387;42.690;23.328;2024-02-21T01:58:28;10.77;;;7.28;;
29984;SDS011;17387;42.690;23.328;2024-02-21T02:00:54;10.27;;;7.40;;
29984;SDS011;17387;42.690;23.328;2024-02-21T02:03:21;11.43;;;7.78;;
29984;SDS011;17387;42.690;23.328;2024-02-21T02:05:48;11.38;;;7.90;;
29984;SDS011;17387;42.690;23.328;2024-02-21T02:08:14;12.77;;;8.05;;
29984;SDS011;17387;42.690;23.328;2024-02-21T02:10:39;12.32;;;8.27;;
29984;SDS011;17387;42.690;23.328;2024-02-21T02:13:05;14.15;;;8.73;;
29984;SDS011;17387;42.690;23.328;2024-02-21T02:15:47;13.80;;;9.02;;
29984;SDS011;17387;42.690;23.328;2024-02-21T02:18:13;14.60;;;9.23;;
29984;SDS011;17387;42.690;23.328;2024-02-21T02:20:38;13.85;;;8.82;;
29984;SDS011;17387;42.690;23.328;2024-02-21T02:23:07;14.60;;;9.52;;
29984;SDS011;17387;42.690;23.328;2024-02-21T02:25:33;14.40;;;9.35;;
29984;SDS011;17387;42.690;23.328;2024-02-21T02:27:59;14.05;;;9.82;;
29984;SDS011;17387;42.690;23.328;2024-02-21T02:30:24;14.40;;;9.55;;
29984;SDS011;17387;42.690;23.328;2024-02-21T02:32:50;14.40;;;9.57;;
29984;SDS011;17387;42.690;23.328;2024-02-21T02:35:15;15.00;;;9.55;;
29984;SDS011;17387;42.690;23.328;2024-02-21T02:37:47;15.77;;;9.90;;
29984;SDS011;17387;42.690;23.328;2024-02-21T02:40:12;15.27;;;10.25;;
29984;SDS011;17387;42.690;23.328;2024-02-21T02:42:37;16.48;;;9.95;;
29984;SDS011;17387;42.690;23.328;2024-02-21T02:45:03;14.50;;;9.77;;
29984;SDS011;17387;42.690;23.328;2024-02-21T02:47:28;14.60;;;9.82;;
29984;SDS011;17387;42.690;23.328;2024-02-21T02:49:53;14.10;;;9.70;;
29984;SDS011;17387;42.690;23.328;2024-02-21T02:52:19;15.98;;;10.38;;
29984;SDS011;17387;42.690;23.328;2024-02-21T02:54:44;18.70;;;9.85;;
29984;SDS011;17387;42.690;23.328;2024-02-21T02:57:10;16.60;;;10.40;;
29984;SDS011;17387;42.690;23.328;2024-02-21T02:59:35;16.20;;;10.93;;
29984;SDS011;17387;42.690;23.328;2024-02-21T03:02:00;17.00;;;11.25;;
29984;SDS011;17387;42.690;23.328;2024-02-21T03:04:25;16.15;;;10.68;;
29984;SDS011;17387;42.690;23.328;2024-02-21T03:06:51;17.65;;;11.35;;
29984;SDS011;17387;42.690;23.328;2024-02-21T03:09:16;17.73;;;10.95;;
29984;SDS011;17387;42.690;23.328;2024-02-21T03:11:42;16.92;;;11.05;;
29984;SDS011;17387;42.690;23.328;2024-02-21T03:14:09;16.30;;;10.93;;
29984;SDS011;17387;42.690;23.328;2024-02-21T03:16:34;18.20;;;12.13;;
29984;SDS011;17387;42.690;23.328;2024-02-21T03:18:59;22.02;;;12.68;;
29984;SDS011;17387;42.690;23.328;2024-02-21T03:21:25;21.55;;;13.82;;
29984;SDS011;17387;42.690;23.328;2024-02-21T03:23:50;19.08;;;12.45;;
29984;SDS011;17387;42.690;23.328;2024-02-21T03:26:15;19.23;;;12.60;;
29984;SDS011;17387;42.690;23.328;2024-02-21T03:28:42;22.10;;;13.73;;
29984;SDS011;17387;42.690;23.328;2024-02-21T03:31:10;22.00;;;12.50;;
29984;SDS011;17387;42.690;23.328;2024-02-21T03:33:35;18.67;;;12.82;;
29984;SDS011;17387;42.690;23.328;2024-02-21T03:36:01;20.30;;;12.67;;
29984;SDS011;17387;42.690;23.328;2024-02-21T03:38:26;19.23;;;12.37;;
29984;SDS011;17387;42.690;23.328;2024-02-21T03:40:51;20.10;;;12.85;;
29984;SDS011;17387;42.690;23.328;2024-02-21T03:43:16;19.20;;;12.30;;
29984;SDS011;17387;42.690;23.328;2024-02-21T03:45:42;19.77;;;13.03;;
29984;SDS011;17387;42.690;23.328;2024-02-21T03:48:07;19.15;;;12.23;;
29984;SDS011;17387;42.690;23.328;2024-02-21T03:50:32;18.73;;;11.65;;
29984;SDS011;17387;42.690;23.328;2024-02-21T03:52:57;20.42;;;11.80;;
29984;SDS011;17387;42.690;23.328;2024-02-21T03:55:23;22.05;;;12.55;;
29984;SDS011;17387;42.690;23.328;2024-02-21T03:57:48;20.90;;;11.73;;
29984;SDS011;17387;42.690;23.328;2024-02-21T04:00:14;20.05;;;12.88;;
29984;SDS011;17387;42.690;23.328;2024-02-21T04:02:39;18.75;;;11.98;;
29984;SDS011;17387;42.690;23.328;2024-02-21T04:05:04;18.52;;;11.55;;
29984;SDS011;17387;42.690;23.328;2024-02-21T04:07:30;17.75;;;11.93;;
29984;SDS011;17387;42.690;23.328;2024-02-21T04:09:55;21.20;;;12.83;;
29984;SDS011;17387;42.690;23.328;2024-02-21T04:12:21;17.92;;;11.55;;
29984;SDS011;17387;42.690;23.328;2024-02-21T04:14:46;19.75;;;11.70;;
29984;SDS011;17387;42.690;23.328;2024-02-21T04:17:11;19.73;;;12.82;;
29984;SDS011;17387;42.690;23.328;2024-02-21T04:19:36;18.80;;;12.07;;
29984;SDS011;17387;42.690;23.328;2024-02-21T04:22:02;19.53;;;12.33;;
29984;SDS011;17387;42.690;23.328;2024-02-21T04:24:27;23.13;;;13.38;;
29984;SDS011;17387;42.690;23.328;2024-02-21T04:26:52;20.98;;;13.30;;
29984;SDS011;17387;42.690;23.328;2024-02-21T04:29:17;22.42;;;12.55;;
29984;SDS011;17387;42.690;23.328;2024-02-21T04:31:42;19.95;;;13.10;;
29984;SDS011;17387;42.690;23.328;2024-02-21T04:34:08;19.52;;;12.60;;
29984;SDS011;17387;42.690;23.328;2024-02-21T04:36:33;22.08;;;13.70;;
29984;SDS011;17387;42.690;23.328;2024-02-21T04:38:58;21.93;;;13.97;;
29984;SDS011;17387;42.690;23.328;2024-02-21T04:41:24;21.20;;;13.70;;
29984;SDS011;17387;42.690;23.328;2024-02-21T04:43:49;21.20;;;13.23;;
29984;SDS011;17387;42.690;23.328;2024-02-21T04:46:14;20.95;;;13.65;;
29984;SDS011;17387;42.690;23.328;2024-02-21T04:48:40;22.05;;;13.43;;
29984;SDS011;17387;42.690;23.328;2024-02-21T04:51:05;21.13;;;13.37;;
29984;SDS011;17387;42.690;23.328;2024-02-21T04:53:31;23.00;;;14.00;;
29984;SDS011;17387;42.690;23.328;2024-02-21T04:55:56;22.77;;;13.77;;
29984;SDS011;17387;42.690;23.328;2024-02-21T04:58:21;23.15;;;14.02;;
29984;SDS011;17387;42.690;23.328;2024-02-21T05:00:46;23.40;;;13.88;;
29984;SDS011;17387;42.690;23.328;2024-02-21T05:03:12;21.60;;;13.23;;
29984;SDS011;17387;42.690;23.328;2024-02-21T05:05:37;21.23;;;13.07;;
29984;SDS011;17387;42.690;23.328;2024-02-21T05:08:02;21.30;;;13.63;;
29984;SDS011;17387;42.690;23.328;2024-02-21T05:10:27;23.48;;;13.43;;
29984;SDS011;17387;42.690;23.328;2024-02-21T05:12:53;24.17;;;14.07;;
29984;SDS011;17387;42.690;23.328;2024-02-21T05:15:19;22.35;;;13.77;;
29984;SDS011;17387;42.690;23.328;2024-02-21T05:17:44;23.48;;;14.15;;
29984;SDS011;17387;42.690;23.328;2024-02-21T05:20:09;24.13;;;14.35;;
29984;SDS011;17387;42.690;23.328;2024-02-21T05:22:35;23.00;;;14.20;;
29984;SDS011;17387;42.690;23.328;2024-02-21T05:25:00;23.73;;;14.38;;
29984;SDS011;17387;42.690;23.328;2024-02-21T05:27:25;21.52;;;14.15;;
29984;SDS011;17387;42.690;23.328;2024-02-21T05:29:51;23.25;;;14.75;;
29984;SDS011;17387;42.690;23.328;2024-02-21T05:32:16;24.50;;;14.13;;
29984;SDS011;17387;42.690;23.328;2024-02-21T05:34:42;25.08;;;13.82;;
29984;SDS011;17387;42.690;23.328;2024-02-21T05:37:07;25.58;;;14.68;;
29984;SDS011;17387;42.690;23.328;2024-02-21T05:39:32;23.65;;;13.85;;
29984;SDS011;17387;42.690;23.328;2024-02-21T05:41:57;23.48;;;14.40;;
29984;SDS011;17387;42.690;23.328;2024-02-21T05:44:23;23.25;;;14.35;;
29984;SDS011;17387;42.690;23.328;2024-02-21T05:46:48;22.77;;;15.35;;
29984;SDS011;17387;42.690;23.328;2024-02-21T05:49:13;23.45;;;14.57;;
29984;SDS011;17387;42.690;23.328;2024-02-21T05:51:39;23.08;;;14.25;;
29984;SDS011;17387;42.690;23.328;2024-02-21T05:54:04;24.77;;;14.77;;
29984;SDS011;17387;42.690;23.328;2024-02-21T05:56:30;28.83;;;16.17;;
29984;SDS011;17387;42.690;23.328;2024-02-21T05:58:55;29.35;;;16.85;;
29984;SDS011;17387;42.690;23.328;2024-02-21T06:01:20;29.13;;;16.38;;
29984;SDS011;17387;42.690;23.328;2024-02-21T06:03:49;22.77;;;14.43;;
29984;SDS011;17387;42.690;23.328;2024-02-21T06:06:14;24.08;;;14.95;;
29984;SDS011;17387;42.690;23.328;2024-02-21T06:08:42;26.45;;;15.65;;
29984;SDS011;17387;42.690;23.328;2024-02-21T06:11:07;28.33;;;15.57;;
29984;SDS011;17387;42.690;23.328;2024-02-21T06:13:33;25.77;;;16.13;;
29984;SDS011;17387;42.690;23.328;2024-02-21T06:15:58;27.02;;;16.02;;
29984;SDS011;17387;42.690;23.328;2024-02-21T06:18:23;26.58;;;16.13;;
29984;SDS011;17387;42.690;23.328;2024-02-21T06:20:48;26.10;;;16.95;;
29984;SDS011;17387;42.690;23.328;2024-02-21T06:23:15;25.30;;;16.48;;
29984;SDS011;17387;42.690;23.328;2024-02-21T06:25:40;26.05;;;15.95;;
29984;SDS011;17387;42.690;23.328;2024-02-21T06:28:06;25.25;;;16.88;;
29984;SDS011;17387;42.690;23.328;2024-02-21T06:30:31;28.48;;;16.40;;
29984;SDS011;17387;42.690;23.328;2024-02-21T06:32:56;26.23;;;15.55;;
29984;SDS011;17387;42.690;23.328;2024-02-21T06:35:22;25.27;;;15.52;;
29984;SDS011;17387;42.690;23.328;2024-02-21T06:37:49;26.65;;;16.10;;
29984;SDS011;17387;42.690;23.328;2024-02-21T06:40:16;27.17;;;16.23;;
29984;SDS011;17387;42.690;23.328;2024-02-21T06:42:41;26.65;;;15.93;;
29984;SDS011;17387;42.690;23.328;2024-02-21T06:45:07;24.50;;;14.98;;
29984;SDS011;17387;42.690;23.328;2024-02-21T06:47:32;25.63;;;16.20;;
29984;SDS011;17387;42.690;23.328;2024-02-21T06:49:57;25.70;;;16.05;;
29984;SDS011;17387;42.690;23.328;2024-02-21T06:52:22;26.85;;;16.23;;
29984;SDS011;17387;42.690;23.328;2024-02-21T06:54:48;29.35;;;15.68;;
29984;SDS011;17387;42.690;23.328;2024-02-21T06:57:14;27.58;;;16.38;;
29984;SDS011;17387;42.690;23.328;2024-02-21T06:59:40;23.90;;;15.80;;
29984;SDS011;17387;42.690;23.328;2024-02-21T07:02:05;24.98;;;15.68;;
29984;SDS011;17387;42.690;23.328;2024-02-21T07:04:31;26.23;;;16.90;;
29984;SDS011;17387;42.690;23.328;2024-02-21T07:06:56;27.50;;;15.73;;
29984;SDS011;17387;42.690;23.328;2024-02-21T07:09:21;28.58;;;16.17;;
29984;SDS011;17387;42.690;23.328;2024-02-21T07:11:46;25.87;;;16.43;;
29984;SDS011;17387;42.690;23.328;2024-02-21T07:14:13;26.60;;;16.88;;
29984;SDS011;17387;42.690;23.328;2024-02-21T07:16:39;33.00;;;16.95;;
29984;SDS011;17387;42.690;23.328;2024-02-21T07:19:04;28.60;;;16.55;;
29984;SDS011;17387;42.690;23.328;2024-02-21T07:21:29;27.33;;;16.45;;
29984;SDS011;17387;42.690;23.328;2024-02-21T07:23:54;27.42;;;16.73;;
29984;SDS011;17387;42.690;23.328;2024-02-21T07:26:19;27.27;;;16.67;;
29984;SDS011;17387;42.690;23.328;2024-02-21T07:28:45;25.08;;;15.73;;
29984;SDS011;17387;42.690;23.328;2024-02-21T07:31:11;25.60;;;15.45;;
29984;SDS011;17387;42.690;23.328;2024-02-21T07:33:36;32.38;;;17.33;;
29984;SDS011;17387;42.690;23.328;2024-02-21T07:36:05;32.35;;;17.05;;
29984;SDS011;17387;42.690;23.328;2024-02-21T07:38:30;31.98;;;17.58;;
29984;SDS011;17387;42.690;23.328;2024-02-21T07:40:55;31.00;;;18.43;;
29984;SDS011;17387;42.690;23.328;2024-02-21T07:43:20;26.57;;;15.57;;
29984;SDS011;17387;42.690;23.328;2024-02-21T07:45:47;30.90;;;18.08;;
29984;SDS011;17387;42.690;23.328;2024-02-21T07:48:12;26.63;;;17.13;;
29984;SDS011;17387;42.690;23.328;2024-02-21T07:50:37;28.02;;;16.80;;
29984;SDS011;17387;42.690;23.328;2024-02-21T07:53:03;29.70;;;17.73;;
29984;SDS011;17387;42.690;23.328;2024-02-21T07:55:28;30.20;;;16.08;;
29984;SDS011;17387;42.690;23.328;2024-02-21T07:57:53;31.95;;;17.90;;
29984;SDS011;17387;42.690;23.328;2024-02-21T08:00:19;27.67;;;17.25;;
29984;SDS011;17387;42.690;23.328;2024-02-21T08:02:48;29.23;;;17.15;;
29984;SDS011;17387;42.690;23.328;2024-02-21T08:05:13;27.90;;;16.63;;
29984;SDS011;17387;42.690;23.328;2024-02-21T08:07:39;30.27;;;18.50;;
29984;SDS011;17387;42.690;23.328;2024-02-21T08:10:04;30.25;;;15.98;;
29984;SDS011;17387;42.690;23.328;2024-02-21T08:12:32;29.38;;;17.38;;
29984;SDS011;17387;42.690;23.328;2024-02-21T08:14:57;27.65;;;17.40;;
29984;SDS011;17387;42.690;23.328;2024-02-21T08:17:23;29.02;;;16.77;;
29984;SDS011;17387;42.690;23.328;2024-02-21T08:19:48;29.40;;;18.00;;
29984;SDS011;17387;42.690;23.328;2024-02-21T08:22:14;24.55;;;15.63;;
29984;SDS011;17387;42.690;23.328;2024-02-21T08:24:39;24.13;;;16.33;;
29984;SDS011;17387;42.690;23.328;2024-02-21T08:27:04;28.27;;;16.88;;
29984;SDS011;17387;42.690;23.328;2024-02-21T08:29:30;27.98;;;16.80;;
29984;SDS011;17387;42.690;23.328;2024-02-21T08:31:55;30.85;;;17.40;;
29984;SDS011;17387;42.690;23.328;2024-02-21T08:34:20;27.80;;;16.90;;
29984;SDS011;17387;42.690;23.328;2024-02-21T08:36:46;27.20;;;16.75;;
29984;SDS011;17387;42.690;23.328;2024-02-21T08:39:11;29.08;;;16.83;;
29984;SDS011;17387;42.690;23.328;2024-02-21T08:41:40;24.33;;;15.43;;
29984;SDS011;17387;42.690;23.328;2024-02-21T08:44:05;25.27;;;15.90;;
29984;SDS011;17387;42.690;23.328;2024-02-21T08:46:30;25.33;;;15.07;;
29984;SDS011;17387;42.690;23.328;2024-02-21T08:48:55;26.23;;;15.95;;
29984;SDS011;17387;42.690;23.328;2024-02-21T08:51:21;25.92;;;16.60;;
29984;SDS011;17387;42.690;23.328;2024-02-21T08:53:46;25.90;;;16.02;;
29984;SDS011;17387;42.690;23.328;2024-02-21T08:56:12;24.50;;;15.27;;
29984;SDS011;17387;42.690;23.328;2024-02-21T08:58:37;24.17;;;15.57;;
29984;SDS011;17387;42.690;23.328;2024-02-21T09:01:03;25.25;;;15.57;;
29984;SDS011;17387;42.690;23.328;2024-02-21T09:03:30;22.33;;;13.65;;
29984;SDS011;17387;42.690;23.328;2024-02-21T09:05:55;23.27;;;15.00;;
29984;SDS011;17387;42.690;23.328;2024-02-21T09:08:20;24.47;;;15.60;;
29984;SDS011;17387;42.690;23.328;2024-02-21T09:10:46;24.95;;;14.93;;
29984;SDS011;17387;42.690;23.328;2024-02-21T09:13:11;23.42;;;14.82;;
29984;SDS011;17387;42.690;23.328;2024-02-21T09:15:36;23.63;;;15.10;;
29984;SDS011;17387;42.690;23.328;2024-02-21T09:18:02;22.65;;;14.70;;
29984;SDS011;17387;42.690;23.328;2024-02-21T09:20:27;24.63;;;14.70;;
29984;SDS011;17387;42.690;23.328;2024-02-21T09:22:54;28.08;;;17.63;;
29984;SDS011;17387;42.690;23.328;2024-02-21T09:25:19;25.73;;;16.45;;
29984;SDS011;17387;42.690;23.328;2024-02-21T09:27:44;21.80;;;14.45;;
29984;SDS011;17387;42.690;23.328;2024-02-21T09:30:10;23.35;;;15.43;;
29984;SDS011;17387;42.690;23.328;2024-02-21T09:32:35;21.92;;;14.45;;
29984;SDS011;17387;42.690;23.328;2024-02-21T09:35:01;28.75;;;16.10;;
29984;SDS011;17387;42.690;23.328;2024-02-21T09:37:26;26.85;;;15.90;;
29984;SDS011;17387;42.690;23.328;2024-02-21T09:39:51;24.70;;;16.00;;
29984;SDS011;17387;42.690;23.328;2024-02-21T09:42:19;24.27;;;16.08;;
29984;SDS011;17387;42.690;23.328;2024-02-21T09:44:45;23.40;;;14.85;;
29984;SDS011;17387;42.690;23.328;2024-02-21T09:47:12;24.05;;;15.73;;
29984;SDS011;17387;42.690;23.328;2024-02-21T09:49:40;23.48;;;15.32;;
29984;SDS011;17387;42.690;23.328;2024-02-21T09:52:06;21.98;;;14.57;;
29984;SDS011;17387;42.690;23.328;2024-02-21T09:54:35;22.05;;;14.70;;
29984;SDS011;17387;42.690;23.328;2024-02-21T09:57:00;29.95;;;15.70;;
29984;SDS011;17387;42.690;23.328;2024-02-21T09:59:27;22.38;;;15.07;;
29984;SDS011;17387;42.690;23.328;2024-02-21T10:01:53;21.95;;;14.88;;
29984;SDS011;17387;42.690;23.328;2024-02-21T10:04:19;19.85;;;14.02;;
29984;SDS011;17387;42.690;23.328;2024-02-21T10:06:44;21.40;;;14.00;;
29984;SDS011;17387;42.690;23.328;2024-02-21T10:09:19;17.70;;;12.48;;
29984;SDS011;17387;42.690;23.328;2024-02-21T10:11:44;19.42;;;13.50;;
29984;SDS011;17387;42.690;23.328;2024-02-21T10:14:09;22.07;;;14.27;;
29984;SDS011;17387;42.690;23.328;2024-02-21T10:16:35;18.50;;;13.30;;
29984;SDS011;17387;42.690;23.328;2024-02-21T10:19:02;19.83;;;12.38;;
29984;SDS011;17387;42.690;23.328;2024-02-21T10:21:28;20.65;;;11.65;;
29984;SDS011;17387;42.690;23.328;2024-02-21T10:23:54;16.02;;;11.93;;
29984;SDS011;17387;42.690;23.328;2024-02-21T10:26:20;19.15;;;12.05;;
29984;SDS011;17387;42.690;23.328;2024-02-21T10:28:46;15.60;;;11.02;;
29984;SDS011;17387;42.690;23.328;2024-02-21T10:31:25;14.35;;;9.88;;
29984;SDS011;17387;42.690;23.328;2024-02-21T10:33:54;14.10;;;10.40;;
29984;SDS011;17387;42.690;23.328;2024-02-21T10:36:20;20.50;;;12.05;;
29984;SDS011;17387;42.690;23.328;2024-02-21T10:38:45;16.90;;;11.35;;
29984;SDS011;17387;42.690;23.328;2024-02-21T10:41:10;17.10;;;11.20;;
29984;SDS011;17387;42.690;23.328;2024-02-21T10:43:39;17.92;;;12.00;;
29984;SDS011;17387;42.690;23.328;2024-02-21T10:46:06;14.90;;;10.45;;
29984;SDS011;17387;42.690;23.328;2024-02-21T10:48:33;17.27;;;11.50;;
29984;SDS011;17387;42.690;23.328;2024-02-21T10:51:03;21.38;;;12.05;;
29984;SDS011;17387;42.690;23.328;2024-02-21T10:58:30;23.52;;;13.02;;
29984;SDS011;17387;42.690;23.328;2024-02-21T11:00:55;11.73;;;8.52;;
29984;SDS011;17387;42.690;23.328;2024-02-21T11:03:21;11.80;;;8.32;;
29984;SDS011;17387;42.690;23.328;2024-02-21T11:05:46;11.70;;;7.85;;
29984;SDS011;17387;42.690;23.328;2024-02-21T11:08:11;11.60;;;6.40;;
29984;SDS011;17387;42.690;23.328;2024-02-21T11:10:37;10.43;;;7.00;;
29984;SDS011;17387;42.690;23.328;2024-02-21T11:13:06;9.57;;;6.20;;
29984;SDS011;17387;42.690;23.328;2024-02-21T11:15:50;8.90;;;6.78;;
29984;SDS011;17387;42.690;23.328;2024-02-21T11:18:22;7.65;;;5.43;;
29984;SDS011;17387;42.690;23.328;2024-02-21T11:20:49;11.73;;;6.93;;
29984;SDS011;17387;42.690;23.328;2024-02-21T11:23:23;6.70;;;5.13;;
29984;SDS011;17387;42.690;23.328;2024-02-21T11:25:49;11.43;;;6.47;;
29984;SDS011;17387;42.690;23.328;2024-02-21T11:28:14;7.87;;;5.73;;
29984;SDS011;17387;42.690;23.328;2024-02-21T11:30:50;8.23;;;5.97;;
29984;SDS011;17387;42.690;23.328;2024-02-21T11:33:16;8.05;;;5.63;;
29984;SDS011;17387;42.690;23.328;2024-02-21T11:35:41;9.05;;;6.30;;
29984;SDS011;17387;42.690;23.328;2024-02-21T11:38:13;7.93;;;5.70;;
29984;SDS011;17387;42.690;23.328;2024-02-21T11:40:44;8.30;;;5.97;;
29984;SDS011;17387;42.690;23.328;2024-02-21T11:43:09;9.23;;;5.93;;
29984;SDS011;17387;42.690;23.328;2024-02-21T11:45:35;7.18;;;5.75;;
29984;SDS011;17387;42.690;23.328;2024-02-21T11:48:00;9.35;;;6.07;;
29984;SDS011;17387;42.690;23.328;2024-02-21T11:50:28;8.77;;;5.60;;
29984;SDS011;17387;42.690;23.328;2024-02-21T11:52:57;6.88;;;4.88;;
29984;SDS011;17387;42.690;23.328;2024-02-21T11:55:22;7.90;;;5.80;;
29984;SDS011;17387;42.690;23.328;2024-02-21T11:57:47;8.82;;;6.35;;
29984;SDS011;17387;42.690;23.328;2024-02-21T12:00:16;9.57;;;6.07;;
29984;SDS011;17387;42.690;23.328;2024-02-21T12:02:42;7.63;;;5.97;;
29984;SDS011;17387;42.690;23.328;2024-02-21T12:05:07;9.43;;;6.45;;
29984;SDS011;17387;42.690;23.328;2024-02-21T12:07:33;10.95;;;7.13;;
29984;SDS011;17387;42.690;23.328;2024-02-21T12:09:59;12.98;;;6.90;;
29984;SDS011;17387;42.690;23.328;2024-02-21T12:12:25;9.43;;;6.80;;
29984;SDS011;17387;42.690;23.328;2024-02-21T12:14:54;11.37;;;7.57;;
29984;SDS011;17387;42.690;23.328;2024-02-21T12:17:20;11.32;;;7.25;;
29984;SDS011;17387;42.690;23.328;2024-02-21T12:19:45;9.00;;;6.70;;
29984;SDS011;17387;42.690;23.328;2024-02-21T12:22:16;18.38;;;7.50;;
29984;SDS011;17387;42.690;23.328;2024-02-21T12:24:41;11.47;;;7.30;;
29984;SDS011;17387;42.690;23.328;2024-02-21T12:27:12;11.05;;;6.90;;
29984;SDS011;17387;42.690;23.328;2024-02-21T12:29:37;11.30;;;7.45;;
29984;SDS011;17387;42.690;23.328;2024-02-21T12:32:03;12.05;;;7.28;;
29984;SDS011;17387;42.690;23.328;2024-02-21T12:34:29;9.30;;;6.28;;
29984;SDS011;17387;42.690;23.328;2024-02-21T12:36:56;9.10;;;6.35;;
29984;SDS011;17387;42.690;23.328;2024-02-21T12:39:22;9.27;;;6.47;;
29984;SDS011;17387;42.690;23.328;2024-02-21T12:41:47;10.33;;;6.00;;
29984;SDS011;17387;42.690;23.328;2024-02-21T12:44:12;12.60;;;7.32;;
29984;SDS011;17387;42.690;23.328;2024-02-21T12:46:37;13.18;;;7.40;;
29984;SDS011;17387;42.690;23.328;2024-02-21T12:49:04;12.10;;;7.28;;
29984;SDS011;17387;42.690;23.328;2024-02-21T12:51:30;12.32;;;8.02;;
29984;SDS011;17387;42.690;23.328;2024-02-21T12:53:55;10.25;;;7.57;;
29984;SDS011;17387;42.690;23.328;2024-02-21T12:56:21;10.63;;;7.28;;
29984;SDS011;17387;42.690;23.328;2024-02-21T12:58:46;12.02;;;8.35;;
29984;SDS011;17387;42.690;23.328;2024-02-21T13:01:11;13.27;;;8.40;;
29984;SDS011;17387;42.690;23.328;2024-02-21T13:03:37;14.05;;;8.60;;
29984;SDS011;17387;42.690;23.328;2024-02-21T13:06:03;16.15;;;9.27;;
29984;SDS011;17387;42.690;23.328;2024-02-21T13:08:28;12.20;;;8.35;;
29984;SDS011;17387;42.690;23.328;2024-02-21T13:10:53;11.20;;;7.90;;
29984;SDS011;17387;42.690;23.328;2024-02-21T13:13:18;10.65;;;7.43;;
29984;SDS011;17387;42.690;23.328;2024-02-21T13:15:44;14.15;;;8.60;;
29984;SDS011;17387;42.690;23.328;2024-02-21T13:18:09;14.27;;;9.18;;
29984;SDS011;17387;42.690;23.328;2024-02-21T13:20:35;15.27;;;10.20;;
29984;SDS011;17387;42.690;23.328;2024-02-21T13:23:00;15.07;;;9.52;;
29984;SDS011;17387;42.690;23.328;2024-02-21T13:25:26;21.42;;;10.35;;
29984;SDS011;17387;42.690;23.328;2024-02-21T13:27:51;11.23;;;7.60;;
29984;SDS011;17387;42.690;23.328;2024-02-21T13:30:16;15.05;;;8.27;;
29984;SDS011;17387;42.690;23.328;2024-02-21T13:32:42;9.25;;;6.70;;
29984;SDS011;17387;42.690;23.328;2024-02-21T13:35:08;13.07;;;8.32;;
29984;SDS011;17387;42.690;23.328;2024-02-21T13:37:34;9.90;;;6.95;;
29984;SDS011;17387;42.690;23.328;2024-02-21T13:39:59;11.80;;;6.63;;
29984;SDS011;17387;42.690;23.328;2024-02-21T13:42:24;11.38;;;7.53;;
29984;SDS011;17387;42.690;23.328;2024-02-21T13:44:52;13.77;;;7.68;;
29984;SDS011;17387;42.690;23.328;2024-02-21T13:47:17;12.73;;;7.57;;
29984;SDS011;17387;42.690;23.328;2024-02-21T13:49:43;14.93;;;9.17;;
29984;SDS011;17387;42.690;23.328;2024-02-21T13:52:08;12.93;;;7.97;;
29984;SDS011;17387;42.690;23.328;2024-02-21T13:54:34;11.88;;;8.05;;
29984;SDS011;17387;42.690;23.328;2024-02-21T13:56:59;10.55;;;7.50;;
29984;SDS011;17387;42.690;23.328;2024-02-21T13:59:26;14.90;;;8.52;;
29984;SDS011;17387;42.690;23.328;2024-02-21T14:01:51;14.75;;;8.57;;
29984;SDS011;17387;42.690;23.328;2024-02-21T14:04:17;15.10;;;9.32;;
29984;SDS011;17387;42.690;23.328;2024-02-21T14:06:42;13.10;;;8.20;;
29984;SDS011;17387;42.690;23.328;2024-02-21T14:09:14;10.43;;;7.30;;
29984;SDS011;17387;42.690;23.328;2024-02-21T14:14:06;11.18;;;6.75;;
29984;SDS011;17387;42.690;23.328;2024-02-21T14:16:31;11.15;;;7.75;;